createdAt,value
2022-11-20T00:00:12.557Z,1.24
2022-11-20T00:03:01.984Z,1.23
2022-11-20T00:05:49.918Z,1.22
2022-11-20T00:08:38.228Z,1.23
2022-11-20T00:11:28.611Z,1.19
2022-11-20T00:14:16.578Z,1.17
2022-11-20T00:17:04.671Z,1.18
2022-11-20T00:19:53.879Z,1.06
2022-11-20T00:22:41.802Z,1.11
2022-11-20T00:25:29.834Z,1.14
2022-11-20T00:28:17.712Z,1.17
2022-11-20T00:31:07.246Z,1.11
2022-11-20T00:33:55.320Z,1.12
2022-11-20T00:36:44.688Z,1.13
2022-11-20T00:39:32.603Z,1.16
2022-11-20T00:42:20.427Z,1.19
2022-11-20T00:45:09.334Z,1.05
2022-11-20T00:47:57.185Z,0.94
2022-11-20T00:50:45.173Z,1.00
2022-11-20T00:53:34.582Z,1.07
2022-11-20T00:56:23.061Z,1.11
2022-11-20T00:59:11.860Z,1.14
2022-11-20T01:01:59.875Z,1.15
2022-11-20T01:04:47.619Z,1.16
2022-11-20T01:07:35.285Z,1.16
2022-11-20T01:10:24.707Z,1.05
2022-11-20T01:13:30.408Z,1.10
2022-11-20T01:16:20.349Z,1.15
2022-11-20T01:19:09.887Z,1.16
2022-11-20T01:21:57.974Z,1.15
2022-11-20T01:24:45.821Z,1.16
2022-11-20T01:27:35.298Z,1.11
2022-11-20T01:30:23.191Z,1.12
2022-11-20T01:33:11.095Z,1.15
2022-11-20T01:36:07.322Z,1.19
2022-11-20T01:39:27.983Z,1.06
2022-11-20T01:42:33.220Z,1.11
2022-11-20T01:45:58.161Z,1.16
2022-11-20T01:48:52.723Z,1.09
2022-11-20T01:51:44.166Z,1.12
2022-11-20T01:54:38.119Z,1.10
2022-11-20T01:57:28.909Z,1.15
2022-11-20T02:00:19.190Z,1.16
2022-11-20T02:03:11.967Z,1.20
2022-11-20T02:06:09.035Z,1.22
2022-11-20T02:08:57.130Z,1.21
2022-11-20T02:11:45.410Z,1.22
2022-11-20T02:14:32.597Z,1.26
2022-11-20T02:17:20.657Z,1.29
2022-11-20T02:20:11.388Z,1.28
2022-11-20T02:23:05.392Z,1.30
2022-11-20T02:25:56.561Z,1.30
2022-11-20T02:28:44.720Z,1.31
2022-11-20T02:31:42.318Z,1.32
2022-11-20T02:34:30.845Z,1.31
2022-11-20T02:37:20.315Z,1.30
2022-11-20T02:40:09.844Z,1.32
2022-11-20T02:42:59.913Z,1.31
2022-11-20T02:45:47.758Z,1.30
2022-11-20T02:48:35.741Z,1.29
2022-11-20T02:51:24.261Z,1.31
2022-11-20T02:54:12.094Z,1.33
2022-11-20T02:57:00.023Z,1.34
2022-11-20T02:59:49.826Z,1.32
2022-11-20T03:02:37.864Z,1.33
2022-11-20T03:05:26.205Z,1.34
2022-11-20T03:08:13.857Z,1.35
2022-11-20T03:11:07.217Z,1.36
2022-11-20T03:13:55.277Z,1.36
2022-11-20T03:16:47.039Z,1.35
2022-11-20T03:19:35.233Z,1.34
2022-11-20T03:22:23.358Z,1.34
2022-11-20T03:25:11.571Z,1.37
2022-11-20T03:27:59.163Z,1.35
2022-11-20T03:30:47.119Z,1.34
2022-11-20T03:33:36.509Z,1.35
2022-11-20T03:36:24.980Z,1.33
2022-11-20T03:39:12.985Z,1.33
2022-11-20T03:42:01.086Z,1.35
2022-11-20T03:44:49.113Z,1.33
2022-11-20T03:47:37.388Z,1.29
2022-11-20T03:50:26.548Z,1.23
2022-11-20T03:53:14.464Z,1.21
2022-11-20T03:56:02.392Z,1.26
2022-11-20T03:58:50.338Z,1.27
2022-11-20T04:01:39.298Z,1.26
2022-11-20T04:04:27.360Z,1.28
2022-11-20T04:07:16.763Z,1.22
2022-11-20T04:10:04.851Z,1.26
2022-11-20T04:12:52.747Z,1.23
2022-11-20T04:15:40.305Z,1.23
2022-11-20T04:18:28.194Z,1.24
2022-11-20T04:21:16.315Z,1.24
2022-11-20T04:24:06.269Z,1.25
2022-11-20T04:26:54.113Z,1.27
2022-11-20T04:29:43.634Z,1.28
2022-11-20T04:32:31.525Z,1.28
2022-11-20T04:35:19.470Z,1.29
2022-11-20T04:38:07.695Z,1.28
2022-11-20T04:41:00.450Z,1.30
2022-11-20T04:43:50.464Z,1.29
2022-11-20T04:46:40.777Z,1.28
2022-11-20T04:49:28.521Z,1.30
2022-11-20T04:52:16.824Z,1.30
2022-11-20T04:55:05.385Z,1.26
2022-11-20T04:57:54.488Z,1.27
2022-11-20T05:00:42.520Z,1.28
2022-11-20T05:03:30.425Z,1.27
2022-11-20T05:06:20.758Z,1.19
2022-11-20T05:09:08.723Z,1.10
2022-11-20T05:11:56.791Z,1.12
2022-11-20T05:14:46.075Z,1.14
2022-11-20T05:17:34.005Z,1.18
2022-11-20T05:20:22.557Z,1.21
2022-11-20T05:23:10.465Z,1.23
2022-11-20T05:25:59.756Z,1.25
2022-11-20T05:28:49.197Z,1.27
2022-11-20T05:31:38.266Z,1.28
2022-11-20T05:34:25.922Z,1.22
2022-11-20T05:37:13.946Z,1.19
2022-11-20T05:40:02.104Z,1.19
2022-11-20T05:42:50.043Z,1.26
2022-11-20T05:45:39.069Z,1.25
2022-11-20T05:48:28.544Z,1.23
2022-11-20T05:51:19.386Z,1.28
2022-11-20T05:54:07.290Z,1.32
2022-11-20T05:56:55.397Z,1.32
2022-11-20T05:59:43.564Z,1.30
2022-11-20T06:02:31.425Z,1.29
2022-11-20T06:05:22.147Z,1.32
2022-11-20T06:08:09.998Z,1.30
2022-11-20T06:10:58.037Z,1.23
2022-11-20T06:13:46.679Z,1.20
2022-11-20T06:16:34.576Z,1.26
2022-11-20T06:19:22.627Z,1.28
2022-11-20T06:22:11.781Z,1.31
2022-11-20T06:24:59.504Z,1.32
2022-11-20T06:27:47.652Z,1.28
2022-11-20T06:30:35.893Z,1.29
2022-11-20T06:33:23.705Z,1.31
2022-11-20T06:36:12.965Z,1.30
2022-11-20T06:39:10.396Z,1.30
2022-11-20T06:41:59.261Z,1.19
2022-11-20T06:44:47.309Z,1.17
2022-11-20T06:47:35.095Z,1.20
2022-11-20T06:50:23.118Z,1.24
2022-11-20T06:53:10.861Z,1.28
2022-11-20T06:56:00.600Z,1.32
2022-11-20T06:58:48.636Z,1.32
2022-11-20T07:01:36.982Z,1.32
2022-11-20T07:04:25.005Z,1.35
2022-11-20T07:07:12.924Z,1.36
2022-11-20T07:10:01.078Z,1.35
2022-11-20T07:12:54.082Z,1.35
2022-11-20T07:15:41.752Z,1.34
2022-11-20T07:18:29.702Z,1.34
2022-11-20T07:21:17.618Z,1.36
2022-11-20T07:24:05.380Z,1.40
2022-11-20T07:26:53.125Z,1.39
2022-11-20T07:29:42.612Z,1.40
2022-11-20T07:32:30.170Z,1.35
2022-11-20T07:35:18.222Z,1.35
2022-11-20T07:38:05.900Z,1.36
2022-11-20T07:40:57.492Z,1.38
2022-11-20T07:43:45.288Z,1.40
2022-11-20T07:46:34.723Z,1.43
2022-11-20T07:49:22.780Z,1.44
2022-11-20T07:52:11.018Z,1.47
2022-11-20T07:54:59.047Z,1.50
2022-11-20T07:57:46.841Z,1.51
2022-11-20T08:00:34.895Z,1.53
2022-11-20T08:03:25.859Z,1.53
2022-11-20T08:06:14.007Z,1.52
2022-11-20T08:09:02.249Z,1.48
2022-11-20T08:12:07.583Z,1.47
2022-11-20T08:14:56.357Z,1.49
2022-11-20T08:17:56.770Z,1.52
2022-11-20T08:20:53.588Z,1.54
2022-11-20T08:23:41.243Z,1.54
2022-11-20T08:26:29.451Z,1.56
2022-11-20T08:29:17.139Z,1.57
2022-11-20T08:32:05.333Z,1.55
2022-11-20T08:34:53.455Z,1.50
2022-11-20T08:37:43.357Z,1.53
2022-11-20T08:40:31.370Z,1.48
2022-11-20T08:43:19.118Z,1.46
2022-11-20T08:46:07.233Z,1.52
2022-11-20T08:48:55.493Z,1.55
2022-11-20T08:51:44.090Z,1.61
2022-11-20T08:54:33.293Z,1.62
2022-11-20T08:57:21.309Z,1.63
2022-11-20T09:00:12.512Z,1.64
2022-11-20T09:03:01.859Z,1.65
2022-11-20T09:05:50.036Z,1.68
2022-11-20T09:08:38.481Z,1.72
2022-11-20T09:11:27.882Z,1.75
2022-11-20T09:14:15.563Z,1.75
2022-11-20T09:17:03.602Z,1.74
2022-11-20T09:19:51.597Z,1.78
2022-11-20T09:22:42.729Z,1.80
2022-11-20T09:25:30.539Z,1.83
2022-11-20T09:28:20.492Z,1.85
2022-11-20T09:31:08.938Z,1.86
2022-11-20T09:33:57.025Z,1.87
2022-11-20T09:36:44.570Z,1.87
2022-11-20T09:39:32.437Z,1.88
2022-11-20T09:42:31.996Z,1.91
2022-11-20T09:45:26.751Z,1.88
2022-11-20T09:48:39.004Z,1.90
2022-11-20T09:51:38.135Z,1.89
2022-11-20T09:54:31.720Z,1.97
2022-11-20T09:57:23.929Z,1.97
2022-11-20T10:00:16.482Z,2.00
2022-11-20T10:03:15.224Z,2.03
2022-11-20T10:06:05.111Z,2.03
2022-11-20T10:09:01.792Z,2.06
2022-11-20T10:11:59.990Z,2.05
2022-11-20T10:15:18.347Z,2.07
2022-11-20T10:18:23.576Z,2.08
2022-11-20T10:21:18.466Z,2.10
2022-11-20T10:24:25.707Z,2.10
2022-11-20T10:27:42.408Z,2.11
2022-11-20T10:30:31.609Z,2.11
2022-11-20T10:33:24.721Z,2.11
2022-11-20T10:36:21.366Z,2.12
2022-11-20T10:39:17.835Z,2.14
2022-11-20T10:42:10.897Z,2.14
2022-11-20T10:45:12.127Z,2.15
2022-11-20T10:48:12.823Z,2.15
2022-11-20T10:51:20.325Z,2.16
2022-11-20T10:54:19.374Z,2.14
2022-11-20T10:57:19.934Z,2.13
2022-11-20T11:00:11.765Z,2.15
2022-11-20T11:03:03.329Z,2.18
2022-11-20T11:05:56.093Z,2.28
2022-11-20T11:08:46.290Z,2.33
2022-11-20T11:11:35.759Z,2.32
2022-11-20T11:14:25.550Z,2.30
2022-11-20T11:17:24.477Z,2.31
2022-11-20T11:20:21.940Z,2.28
2022-11-20T11:23:35.407Z,2.30
2022-11-20T11:26:26.775Z,2.33
2022-11-20T11:29:21.182Z,2.36
2022-11-20T11:32:10.996Z,2.39
2022-11-20T11:35:03.412Z,2.49
2022-11-20T11:37:52.464Z,2.66
2022-11-20T11:40:42.015Z,2.71
2022-11-20T11:43:52.064Z,2.74
2022-11-20T11:46:41.424Z,2.86
2022-11-20T11:49:29.092Z,2.96
2022-11-20T11:52:20.661Z,3.07
2022-11-20T11:55:13.254Z,3.15
2022-11-20T11:58:19.019Z,3.31
2022-11-20T12:01:21.138Z,3.42
2022-11-20T12:04:19.093Z,3.53
2022-11-20T12:07:44.220Z,3.65
2022-11-20T12:10:32.071Z,3.68
2022-11-20T12:13:43.002Z,3.72
2022-11-20T12:16:36.216Z,3.76
2022-11-20T12:19:24.575Z,3.78
2022-11-20T12:22:28.770Z,3.75
2022-11-20T12:25:20.693Z,3.78
2022-11-20T12:28:41.323Z,3.78
2022-11-20T12:32:26.650Z,3.78
2022-11-20T12:35:30.103Z,3.74
2022-11-20T12:38:49.426Z,3.72
2022-11-20T12:42:25.329Z,3.72
2022-11-20T12:46:07.694Z,3.74
2022-11-20T12:53:46.046Z,3.71
2022-11-20T12:56:51.208Z,3.71
2022-11-20T13:00:14.843Z,3.72
2022-11-20T13:03:36.322Z,3.74
2022-11-20T13:06:27.968Z,3.73
2022-11-20T13:09:18.753Z,3.74
2022-11-20T13:12:13.295Z,3.73
2022-11-20T13:15:12.916Z,3.70
2022-11-20T13:18:02.391Z,3.71
2022-11-20T13:20:50.660Z,3.71
2022-11-20T13:23:40.080Z,3.69
2022-11-20T13:26:29.503Z,3.66
2022-11-20T13:29:21.013Z,3.64
2022-11-20T13:32:16.561Z,3.63
2022-11-20T13:35:06.635Z,3.61
2022-11-20T13:38:03.669Z,3.60
2022-11-20T13:40:58.551Z,3.57
2022-11-20T13:43:49.251Z,3.54
2022-11-20T13:46:42.111Z,3.52
2022-11-20T13:49:34.630Z,3.47
2022-11-20T13:52:40.808Z,3.45
2022-11-20T13:55:38.550Z,3.41
2022-11-20T13:58:38.178Z,3.40
2022-11-20T14:01:29.061Z,3.38
2022-11-20T14:04:22.842Z,3.36
2022-11-20T14:07:15.004Z,3.32
2022-11-20T14:10:03.556Z,3.30
2022-11-20T14:12:51.970Z,3.30
2022-11-20T14:15:44.831Z,3.31
2022-11-20T14:18:33.302Z,3.31
2022-11-20T14:21:26.579Z,3.29
2022-11-20T14:24:15.975Z,3.27
2022-11-20T14:27:04.061Z,3.29
2022-11-20T14:29:53.241Z,3.25
2022-11-20T14:32:43.284Z,3.24
2022-11-20T14:35:33.111Z,3.22
2022-11-20T14:38:26.109Z,3.22
2022-11-20T14:41:21.191Z,3.22
2022-11-20T14:44:11.520Z,3.22
2022-11-20T14:47:00.555Z,3.21
2022-11-20T14:49:51.113Z,3.20
2022-11-20T14:52:38.959Z,3.17
2022-11-20T14:55:32.787Z,3.17
2022-11-20T14:58:25.587Z,3.15
2022-11-20T15:01:16.158Z,3.13
2022-11-20T15:04:08.534Z,3.13
2022-11-20T15:06:59.790Z,3.11
2022-11-20T15:09:47.545Z,3.09
2022-11-20T15:12:37.969Z,3.08
2022-11-20T15:15:32.224Z,3.07
2022-11-20T15:18:23.566Z,3.08
2022-11-20T15:21:14.495Z,3.05
2022-11-20T15:24:03.490Z,3.02
2022-11-20T15:26:51.668Z,3.00
2022-11-20T15:29:39.931Z,2.98
2022-11-20T15:32:33.757Z,2.97
2022-11-20T15:35:24.751Z,2.97
2022-11-20T15:38:12.864Z,2.97
2022-11-20T15:41:02.574Z,2.95
2022-11-20T15:43:50.902Z,2.94
2022-11-20T15:46:42.466Z,2.92
2022-11-20T15:49:30.501Z,2.89
2022-11-20T15:52:18.930Z,2.86
2022-11-20T15:55:10.128Z,2.86
2022-11-20T15:57:59.579Z,2.85
2022-11-20T16:00:47.954Z,2.86
2022-11-20T16:03:35.770Z,2.85
2022-11-20T16:06:23.823Z,2.82
2022-11-20T16:09:11.924Z,2.79
2022-11-20T16:12:00.303Z,2.79
2022-11-20T16:15:12.292Z,2.78
2022-11-20T16:18:01.332Z,2.78
2022-11-20T16:20:52.272Z,2.82
2022-11-20T16:23:40.038Z,2.76
2022-11-20T16:26:28.131Z,2.75
2022-11-20T16:29:16.569Z,2.75
2022-11-20T16:32:05.903Z,2.82
2022-11-20T16:34:53.760Z,2.84
2022-11-20T16:37:42.820Z,2.82
2022-11-20T16:40:30.611Z,2.76
2022-11-20T16:43:18.531Z,2.76
2022-11-20T16:46:07.414Z,2.76
2022-11-20T16:48:58.515Z,2.73
2022-11-20T16:51:46.123Z,2.74
2022-11-20T16:54:34.268Z,2.78
2022-11-20T16:57:22.476Z,2.79
2022-11-20T17:00:11.891Z,2.78
2022-11-20T17:02:59.617Z,2.75
2022-11-20T17:05:48.985Z,2.75
2022-11-20T17:08:37.401Z,2.73
2022-11-20T17:11:25.341Z,2.68
2022-11-20T17:14:13.606Z,2.69
2022-11-20T17:17:01.621Z,2.70
2022-11-20T17:19:49.543Z,2.72
2022-11-20T17:22:39.007Z,2.72
2022-11-20T17:25:26.934Z,2.67
2022-11-20T17:28:15.176Z,2.62
2022-11-20T17:31:03.303Z,2.59
2022-11-20T17:33:51.497Z,2.54
2022-11-20T17:36:44.800Z,2.52
2022-11-20T17:39:34.995Z,2.49
2022-11-20T17:42:29.787Z,2.48
2022-11-20T17:45:17.698Z,2.47
2022-11-20T17:48:06.321Z,2.45
2022-11-20T17:50:54.332Z,2.45
2022-11-20T17:53:43.618Z,2.45
2022-11-20T17:56:51.889Z,2.44
2022-11-20T17:59:40.281Z,2.41
2022-11-20T18:02:28.046Z,2.40
2022-11-20T18:05:16.622Z,2.41
2022-11-20T18:08:04.606Z,2.41
2022-11-20T18:10:52.724Z,2.41
2022-11-20T18:14:00.279Z,2.39
2022-11-20T18:16:50.010Z,2.38
2022-11-20T18:19:48.018Z,2.38
2022-11-20T18:22:48.099Z,2.37
2022-11-20T18:25:36.247Z,2.38
2022-11-20T18:28:24.693Z,2.36
2022-11-20T18:31:15.010Z,2.36
2022-11-20T18:34:03.195Z,2.37
2022-11-20T18:36:51.015Z,2.38
2022-11-20T18:39:39.298Z,2.44
2022-11-20T18:42:44.723Z,2.40
2022-11-20T18:45:32.458Z,2.41
2022-11-20T18:48:21.846Z,2.40
2022-11-20T18:51:11.895Z,2.43
2022-11-20T18:54:00.428Z,2.42
2022-11-20T18:56:48.473Z,2.38
2022-11-20T18:59:36.519Z,2.44
2022-11-20T19:02:25.005Z,2.48
2022-11-20T19:05:15.641Z,2.50
2022-11-20T19:08:03.290Z,2.56
2022-11-20T19:10:51.614Z,2.49
2022-11-20T19:13:40.574Z,2.46
2022-11-20T19:16:28.735Z,2.47
2022-11-20T19:19:17.069Z,2.48
2022-11-20T19:22:06.781Z,2.45
2022-11-20T19:24:54.715Z,2.42
2022-11-20T19:27:42.641Z,2.42
2022-11-20T19:30:30.663Z,2.42
2022-11-20T19:33:18.529Z,2.42
2022-11-20T19:36:15.203Z,2.50
2022-11-20T19:39:06.649Z,2.45
2022-11-20T19:41:54.610Z,2.42
2022-11-20T19:44:42.395Z,2.42
2022-11-20T19:48:00.568Z,2.40
2022-11-20T19:50:38.045Z,2.41
2022-11-20T19:53:26.282Z,2.43
2022-11-20T19:56:15.888Z,2.49
2022-11-20T19:59:04.484Z,2.60
2022-11-20T20:01:53.174Z,2.61
2022-11-20T20:04:41.372Z,2.61
2022-11-20T20:07:29.540Z,2.62
2022-11-20T20:10:20.241Z,2.68
2022-11-20T20:13:09.868Z,2.70
2022-11-20T20:15:57.843Z,2.80
2022-11-20T20:18:46.894Z,2.77
2022-11-20T20:21:36.344Z,2.85
2022-11-20T20:24:24.616Z,2.89
2022-11-20T20:27:12.445Z,2.91
2022-11-20T20:30:01.987Z,2.97
2022-11-20T20:32:55.858Z,2.97
2022-11-20T20:35:45.481Z,2.92
2022-11-20T20:38:33.801Z,2.97
2022-11-20T20:41:23.580Z,2.92
2022-11-20T20:44:29.008Z,3.02
2022-11-20T20:47:18.484Z,3.07
2022-11-20T20:50:08.735Z,3.04
2022-11-20T20:52:56.935Z,3.18
2022-11-20T20:55:54.049Z,3.20
2022-11-20T20:58:43.035Z,3.27
2022-11-20T21:01:31.061Z,3.32
2022-11-20T21:04:20.707Z,3.46
2022-11-20T21:07:08.933Z,3.45
2022-11-20T21:09:56.787Z,3.50
2022-11-20T21:12:44.416Z,3.53
2022-11-20T21:15:32.506Z,3.58
2022-11-20T21:18:23.233Z,3.56
2022-11-20T21:21:32.581Z,3.67
2022-11-20T21:24:20.971Z,3.57
2022-11-20T21:27:09.152Z,3.63
2022-11-20T21:29:57.907Z,3.61
2022-11-20T21:32:45.832Z,3.66
2022-11-20T21:35:35.868Z,3.70
2022-11-20T21:38:25.116Z,3.69
2022-11-20T21:41:14.591Z,3.66
2022-11-20T21:47:13.514Z,3.66
2022-11-20T21:50:01.655Z,3.60
2022-11-20T21:52:49.737Z,3.65
2022-11-20T21:55:39.249Z,3.69
2022-11-20T21:58:28.212Z,3.70
2022-11-20T22:01:18.760Z,3.68
2022-11-20T22:04:08.137Z,3.51
2022-11-20T22:06:56.012Z,3.61
2022-11-20T22:09:44.197Z,3.69
2022-11-20T22:12:33.838Z,3.70
2022-11-20T22:15:45.852Z,3.65
2022-11-20T22:18:28.674Z,3.70
2022-11-20T22:21:17.897Z,3.57
2022-11-20T22:24:05.831Z,3.65
2022-11-20T22:26:53.856Z,3.70
2022-11-20T22:29:43.494Z,3.73
2022-11-20T22:32:31.614Z,3.73
2022-11-20T22:35:19.666Z,3.70
2022-11-20T22:38:07.712Z,3.70
2022-11-20T22:40:55.812Z,3.64
2022-11-20T22:43:45.314Z,3.69
2022-11-20T22:46:36.215Z,3.66
2022-11-20T22:49:24.170Z,3.58
2022-11-20T22:52:12.031Z,3.62
2022-11-20T22:55:05.358Z,3.71
2022-11-20T22:57:55.065Z,3.69
2022-11-20T23:00:46.654Z,3.61
2022-11-20T23:03:36.189Z,3.70
2022-11-20T23:06:25.334Z,3.65
2022-11-20T23:09:13.756Z,3.76
2022-11-20T23:12:01.509Z,3.74
2022-11-20T23:14:49.471Z,3.77
2022-11-20T23:17:37.788Z,3.75
2022-11-20T23:20:27.395Z,3.69
2022-11-20T23:23:15.085Z,3.61
2022-11-20T23:26:04.090Z,3.80
2022-11-20T23:28:53.662Z,3.75
2022-11-20T23:31:41.744Z,3.72
2022-11-20T23:34:29.865Z,3.81
2022-11-20T23:37:18.924Z,3.80
2022-11-20T23:40:08.054Z,3.86
2022-11-20T23:43:13.351Z,3.84
2022-11-20T23:46:02.918Z,3.77
2022-11-20T23:48:51.087Z,3.70
2022-11-20T23:51:39.051Z,3.65
2022-11-20T23:54:28.555Z,3.66
2022-11-20T23:57:16.933Z,3.60
